CSN3846 ZJHK-ZHHH
Flight info
| Callsign | CSN3846 |
|---|---|
| Flight time | 1h 59m |
| Altitude | 24600 |
| Route | AGTEL9ZD AGTEL W71 LH R339 WUY R343 LKO |
| Aircraft | B738/M-SDE2E3FGHIRWXY/LB1 |
Departure
| Time | 2026-04-23 02:44 |
|---|---|
| Airport | Haikou Meilan International Airport (ZJHK) |
Arrival
| Time | 2026-04-23 04:43 |
|---|---|
| Airport | Wuhan Tianhe International Airport (ZHHH) |
| Time | Latitude | Longitude | Altitude | Speed | Heading |
|---|---|---|---|---|---|
| 2026-04-23 02:03 | 19.94732 | 110.46031 | 60 ft | 0 kts | 270° |
| 2026-04-23 02:32 | 19.94732 | 110.46049 | 51 ft | 4 kts | 270° |
| 2026-04-23 02:32 | 19.94731 | 110.46078 | 51 ft | 3 kts | 270° |
| 2026-04-23 02:33 | 19.94730 | 110.46100 | 56 ft | 4 kts | 291° |
| 2026-04-23 02:33 | 19.94716 | 110.46122 | 55 ft | 4 kts | 315° |
| 2026-04-23 02:33 | 19.94710 | 110.46128 | 56 ft | 1 kts | 315° |
| 2026-04-23 02:35 | 19.94714 | 110.46124 | 56 ft | 2 kts | 315° |
| 2026-04-23 02:35 | 19.94720 | 110.46120 | 54 ft | 2 kts | 333° |
| 2026-04-23 02:36 | 19.94733 | 110.46117 | 52 ft | 3 kts | 359° |
| 2026-04-23 02:36 | 19.94761 | 110.46135 | 57 ft | 6 kts | 44° |
| 2026-04-23 02:36 | 19.94790 | 110.46163 | 54 ft | 6 kts | 39° |
| 2026-04-23 02:36 | 19.94821 | 110.46198 | 58 ft | 8 kts | 46° |
| 2026-04-23 02:37 | 19.94867 | 110.46248 | 59 ft | 10 kts | 46° |
| 2026-04-23 02:37 | 19.94935 | 110.46271 | 55 ft | 11 kts | 0° |
| 2026-04-23 02:37 | 19.95020 | 110.46270 | 56 ft | 12 kts | 0° |
| 2026-04-23 02:37 | 19.95100 | 110.46271 | 50 ft | 11 kts | 360° |
| 2026-04-23 02:38 | 19.95173 | 110.46270 | 53 ft | 9 kts | 356° |
| 2026-04-23 02:38 | 19.95203 | 110.46243 | 55 ft | 6 kts | 288° |
| 2026-04-23 02:38 | 19.95205 | 110.46202 | 56 ft | 6 kts | 271° |
| 2026-04-23 02:38 | 19.95205 | 110.46153 | 56 ft | 8 kts | 269° |
| 2026-04-23 02:39 | 19.95205 | 110.46079 | 56 ft | 12 kts | 269° |
| 2026-04-23 02:39 | 19.95205 | 110.45980 | 56 ft | 15 kts | 270° |
| 2026-04-23 02:39 | 19.95205 | 110.45861 | 56 ft | 17 kts | 270° |
| 2026-04-23 02:39 | 19.95204 | 110.45727 | 56 ft | 19 kts | 269° |
| 2026-04-23 02:40 | 19.95205 | 110.45577 | 55 ft | 22 kts | 268° |
| 2026-04-23 02:40 | 19.95203 | 110.45406 | 54 ft | 25 kts | 270° |
| 2026-04-23 02:40 | 19.95203 | 110.45225 | 53 ft | 21 kts | 270° |
| 2026-04-23 02:40 | 19.95203 | 110.45078 | 52 ft | 15 kts | 269° |
| 2026-04-23 02:41 | 19.95202 | 110.44987 | 51 ft | 11 kts | 268° |
| 2026-04-23 02:41 | 19.95203 | 110.44907 | 51 ft | 11 kts | 269° |
| 2026-04-23 02:41 | 19.95214 | 110.44836 | 48 ft | 7 kts | 304° |
| 2026-04-23 02:41 | 19.95251 | 110.44822 | 50 ft | 1 kts | 359° |
| 2026-04-23 02:42 | 19.95263 | 110.44821 | 50 ft | 4 kts | 359° |
| 2026-04-23 02:42 | 19.95312 | 110.44827 | 49 ft | 9 kts | 20° |
| 2026-04-23 02:42 | 19.95367 | 110.44872 | 47 ft | 10 kts | 59° |
| 2026-04-23 02:43 | 19.95372 | 110.44939 | 50 ft | 10 kts | 89° |
| 2026-04-23 02:43 | 19.95373 | 110.45140 | 52 ft | 60 kts | 90° |
| 2026-04-23 02:43 | 19.95375 | 110.45859 | 56 ft | 130 kts | 89° |
| 2026-04-23 02:43 | 19.95362 | 110.46983 | 216 ft | 168 kts | 94° |
| 2026-04-23 02:44 | 19.95366 | 110.48275 | 962 ft | 173 kts | 87° |
| 2026-04-23 02:44 | 19.95765 | 110.49453 | 1797 ft | 180 kts | 50° |
| 2026-04-23 02:44 | 19.96891 | 110.50148 | 2291 ft | 208 kts | 10° |
| 2026-04-23 02:44 | 19.98382 | 110.49896 | 2632 ft | 231 kts | 338° |
| 2026-04-23 02:45 | 19.99931 | 110.49191 | 2973 ft | 249 kts | 336° |
| 2026-04-23 02:45 | 20.01547 | 110.48431 | 3459 ft | 264 kts | 335° |
| 2026-04-23 02:45 | 20.03278 | 110.47619 | 4028 ft | 276 kts | 336° |
| 2026-04-23 02:45 | 20.05035 | 110.46808 | 4971 ft | 275 kts | 336° |
| 2026-04-23 02:46 | 20.06812 | 110.46000 | 5813 ft | 279 kts | 336° |
| 2026-04-23 02:46 | 20.08608 | 110.45194 | 6627 ft | 281 kts | 335° |
| 2026-04-23 02:46 | 20.10419 | 110.44387 | 7420 ft | 284 kts | 335° |
| 2026-04-23 02:46 | 20.12259 | 110.43571 | 8182 ft | 289 kts | 335° |
| 2026-04-23 02:47 | 20.14130 | 110.42744 | 8933 ft | 293 kts | 335° |
| 2026-04-23 02:47 | 20.16024 | 110.41909 | 9719 ft | 297 kts | 335° |
| 2026-04-23 02:47 | 20.17943 | 110.41063 | 10360 ft | 304 kts | 335° |
| 2026-04-23 02:47 | 20.19974 | 110.40166 | 10554 ft | 328 kts | 335° |
| 2026-04-23 02:48 | 20.22143 | 110.39210 | 10835 ft | 345 kts | 335° |
| 2026-04-23 02:48 | 20.24386 | 110.38222 | 11409 ft | 351 kts | 335° |
| 2026-04-23 02:48 | 20.26674 | 110.37273 | 12108 ft | 354 kts | 339° |
| 2026-04-23 02:48 | 20.29023 | 110.36445 | 12819 ft | 357 kts | 340° |
| 2026-04-23 02:49 | 20.31405 | 110.35652 | 13497 ft | 361 kts | 341° |
| 2026-04-23 02:49 | 20.33813 | 110.34852 | 14083 ft | 364 kts | 340° |
| 2026-04-23 02:49 | 20.36246 | 110.34034 | 14677 ft | 368 kts | 340° |
| 2026-04-23 02:49 | 20.38661 | 110.33212 | 15243 ft | 371 kts | 340° |
| 2026-04-23 02:50 | 20.41157 | 110.32354 | 15820 ft | 374 kts | 339° |
| 2026-04-23 02:50 | 20.43616 | 110.31506 | 16383 ft | 377 kts | 339° |
| 2026-04-23 02:50 | 20.46124 | 110.30640 | 16956 ft | 380 kts | 339° |
| 2026-04-23 02:50 | 20.48648 | 110.29769 | 17520 ft | 383 kts | 340° |
| 2026-04-23 02:51 | 20.51294 | 110.29271 | 18004 ft | 393 kts | 357° |
| 2026-04-23 02:51 | 20.54044 | 110.29412 | 18519 ft | 397 kts | 0° |
| 2026-04-23 02:51 | 20.56813 | 110.29618 | 18966 ft | 400 kts | 1° |
| 2026-04-23 02:51 | 20.59597 | 110.29833 | 19415 ft | 403 kts | 0° |
| 2026-04-23 02:52 | 20.62405 | 110.30041 | 19858 ft | 406 kts | 0° |
| 2026-04-23 02:52 | 20.65241 | 110.30240 | 20300 ft | 409 kts | 360° |
| 2026-04-23 02:52 | 20.68092 | 110.30429 | 20736 ft | 412 kts | 359° |
| 2026-04-23 02:52 | 20.70967 | 110.30615 | 21153 ft | 415 kts | 359° |
| 2026-04-23 02:53 | 20.73862 | 110.30798 | 21564 ft | 419 kts | 359° |
| 2026-04-23 02:53 | 20.76777 | 110.30981 | 21974 ft | 422 kts | 359° |
| 2026-04-23 02:53 | 20.79721 | 110.31165 | 22373 ft | 425 kts | 359° |
| 2026-04-23 02:53 | 20.82685 | 110.31351 | 22770 ft | 429 kts | 359° |
| 2026-04-23 02:54 | 20.85676 | 110.31539 | 23151 ft | 432 kts | 359° |
| 2026-04-23 02:54 | 20.88685 | 110.31729 | 23509 ft | 435 kts | 359° |
| 2026-04-23 02:54 | 20.91681 | 110.31919 | 23878 ft | 436 kts | 359° |
| 2026-04-23 02:54 | 20.94751 | 110.32114 | 24287 ft | 436 kts | 359° |
| 2026-04-23 02:55 | 20.97753 | 110.32304 | 24434 ft | 440 kts | 359° |
| 2026-04-23 02:55 | 21.00824 | 110.32497 | 24457 ft | 445 kts | 359° |
| 2026-04-23 02:55 | 21.03922 | 110.32693 | 24459 ft | 446 kts | 359° |
| 2026-04-23 02:55 | 21.07016 | 110.32888 | 24453 ft | 443 kts | 358° |
| 2026-04-23 02:56 | 21.10042 | 110.32622 | 24450 ft | 431 kts | 340° |
| 2026-04-23 02:56 | 21.12748 | 110.31399 | 24465 ft | 419 kts | 323° |
| 2026-04-23 02:56 | 21.15021 | 110.29500 | 24460 ft | 412 kts | 310° |
| 2026-04-23 02:56 | 21.16758 | 110.27098 | 24464 ft | 406 kts | 297° |
| 2026-04-23 02:57 | 21.18136 | 110.24460 | 24465 ft | 406 kts | 295° |
| 2026-04-23 02:57 | 21.19461 | 110.21782 | 24459 ft | 408 kts | 294° |
| 2026-04-23 02:57 | 21.20774 | 110.19091 | 24458 ft | 409 kts | 294° |
| 2026-04-23 02:57 | 21.22098 | 110.16387 | 24464 ft | 410 kts | 295° |
| 2026-04-23 02:58 | 21.23436 | 110.13679 | 24460 ft | 411 kts | 295° |
| 2026-04-23 02:58 | 21.24783 | 110.10974 | 24463 ft | 412 kts | 295° |
| 2026-04-23 02:58 | 21.26138 | 110.08270 | 24463 ft | 412 kts | 295° |
| 2026-04-23 02:58 | 21.27497 | 110.05565 | 24465 ft | 412 kts | 295° |
| 2026-04-23 02:59 | 21.28856 | 110.02864 | 24464 ft | 411 kts | 295° |
| 2026-04-23 02:59 | 21.30212 | 110.00167 | 24467 ft | 411 kts | 295° |
| 2026-04-23 02:59 | 21.31572 | 109.97464 | 24465 ft | 410 kts | 295° |
| 2026-04-23 02:59 | 21.32925 | 109.94773 | 24468 ft | 410 kts | 295° |
| 2026-04-23 03:00 | 21.34275 | 109.92084 | 24472 ft | 409 kts | 295° |
| 2026-04-23 03:00 | 21.35625 | 109.89395 | 24473 ft | 409 kts | 295° |
| 2026-04-23 03:00 | 21.36974 | 109.86705 | 24473 ft | 410 kts | 295° |
| 2026-04-23 03:00 | 21.38321 | 109.84018 | 24476 ft | 410 kts | 295° |
| 2026-04-23 03:01 | 21.39658 | 109.81350 | 24479 ft | 411 kts | 295° |
| 2026-04-23 03:01 | 21.41008 | 109.78654 | 24476 ft | 412 kts | 295° |
| 2026-04-23 03:01 | 21.42365 | 109.75943 | 24483 ft | 412 kts | 295° |
| 2026-04-23 03:01 | 21.43725 | 109.73225 | 24484 ft | 413 kts | 295° |
| 2026-04-23 03:02 | 21.45085 | 109.70505 | 24486 ft | 414 kts | 295° |
| 2026-04-23 03:02 | 21.46450 | 109.67774 | 24495 ft | 415 kts | 295° |
| 2026-04-23 03:02 | 21.47816 | 109.65040 | 24490 ft | 416 kts | 295° |
| 2026-04-23 03:02 | 21.49185 | 109.62299 | 24492 ft | 417 kts | 295° |
| 2026-04-23 03:03 | 21.50552 | 109.59559 | 24495 ft | 417 kts | 295° |
| 2026-04-23 03:03 | 21.51926 | 109.56805 | 24498 ft | 418 kts | 295° |
| 2026-04-23 03:03 | 21.53297 | 109.54054 | 24496 ft | 418 kts | 295° |
| 2026-04-23 03:03 | 21.54671 | 109.51296 | 24502 ft | 418 kts | 296° |
| 2026-04-23 03:04 | 21.56041 | 109.48546 | 24500 ft | 419 kts | 296° |
| 2026-04-23 03:04 | 21.57416 | 109.45785 | 24501 ft | 418 kts | 296° |
| 2026-04-23 03:04 | 21.58850 | 109.43070 | 24503 ft | 419 kts | 301° |
| 2026-04-23 03:04 | 21.60623 | 109.40566 | 24509 ft | 421 kts | 307° |
| 2026-04-23 03:05 | 21.62511 | 109.38163 | 24512 ft | 421 kts | 308° |
| 2026-04-23 03:05 | 21.64418 | 109.35769 | 24512 ft | 421 kts | 308° |
| 2026-04-23 03:05 | 21.66319 | 109.33376 | 24505 ft | 421 kts | 308° |
| 2026-04-23 03:05 | 21.68212 | 109.30976 | 24509 ft | 421 kts | 308° |
| 2026-04-23 03:06 | 21.70100 | 109.28565 | 24514 ft | 420 kts | 308° |
| 2026-04-23 03:06 | 21.71975 | 109.26160 | 24512 ft | 419 kts | 308° |
| 2026-04-23 03:06 | 21.73845 | 109.23753 | 24516 ft | 419 kts | 308° |
| 2026-04-23 03:06 | 21.75686 | 109.21383 | 24520 ft | 418 kts | 308° |
| 2026-04-23 03:07 | 21.77546 | 109.18986 | 24517 ft | 417 kts | 307° |
| 2026-04-23 03:07 | 21.79402 | 109.16593 | 24518 ft | 416 kts | 307° |
| 2026-04-23 03:07 | 21.81253 | 109.14207 | 24515 ft | 415 kts | 307° |
| 2026-04-23 03:07 | 21.83100 | 109.11826 | 24521 ft | 414 kts | 307° |
| 2026-04-23 03:08 | 21.84942 | 109.09450 | 24525 ft | 413 kts | 307° |
| 2026-04-23 03:08 | 21.86787 | 109.07083 | 24523 ft | 412 kts | 307° |
| 2026-04-23 03:08 | 21.88631 | 109.04730 | 24527 ft | 411 kts | 307° |
| 2026-04-23 03:08 | 21.90475 | 109.02380 | 24526 ft | 410 kts | 307° |
| 2026-04-23 03:09 | 21.92310 | 109.00041 | 24528 ft | 409 kts | 307° |
| 2026-04-23 03:09 | 21.94141 | 108.97703 | 24529 ft | 408 kts | 306° |
| 2026-04-23 03:09 | 21.95966 | 108.95370 | 24527 ft | 407 kts | 306° |
| 2026-04-23 03:09 | 21.97791 | 108.93036 | 24531 ft | 407 kts | 306° |
| 2026-04-23 03:10 | 21.99609 | 108.90709 | 24531 ft | 406 kts | 306° |
| 2026-04-23 03:10 | 22.01428 | 108.88379 | 24531 ft | 406 kts | 306° |
| 2026-04-23 03:10 | 22.03244 | 108.86051 | 24535 ft | 406 kts | 306° |
| 2026-04-23 03:10 | 22.04448 | 108.84508 | 24529 ft | 405 kts | 306° |
| 2026-04-23 03:11 | 22.06261 | 108.82182 | 24534 ft | 405 kts | 306° |
| 2026-04-23 03:11 | 22.08686 | 108.79071 | 24536 ft | 405 kts | 306° |
| 2026-04-23 03:11 | 22.10503 | 108.76740 | 24536 ft | 405 kts | 306° |
| 2026-04-23 03:11 | 22.11707 | 108.75195 | 24540 ft | 405 kts | 306° |
| 2026-04-23 03:12 | 22.13521 | 108.72872 | 24539 ft | 406 kts | 306° |
| 2026-04-23 03:12 | 22.15342 | 108.70547 | 24540 ft | 406 kts | 306° |
| 2026-04-23 03:12 | 22.17759 | 108.67463 | 24547 ft | 406 kts | 306° |
| 2026-04-23 03:12 | 22.19578 | 108.65139 | 24546 ft | 406 kts | 306° |
| 2026-04-23 03:13 | 22.20809 | 108.63566 | 24542 ft | 406 kts | 306° |
| 2026-04-23 03:13 | 22.22628 | 108.61240 | 24543 ft | 405 kts | 306° |
| 2026-04-23 03:13 | 22.24443 | 108.58919 | 24547 ft | 405 kts | 306° |
| 2026-04-23 03:13 | 22.26263 | 108.56588 | 24546 ft | 405 kts | 306° |
| 2026-04-23 03:14 | 22.28077 | 108.54265 | 24552 ft | 405 kts | 306° |
| 2026-04-23 03:14 | 22.29887 | 108.51945 | 24548 ft | 405 kts | 306° |
| 2026-04-23 03:14 | 22.31679 | 108.49646 | 24546 ft | 404 kts | 306° |
| 2026-04-23 03:14 | 22.33491 | 108.47322 | 24552 ft | 404 kts | 306° |
| 2026-04-23 03:15 | 22.35300 | 108.45000 | 24553 ft | 404 kts | 306° |
| 2026-04-23 03:15 | 22.37109 | 108.42677 | 24553 ft | 404 kts | 306° |
| 2026-04-23 03:15 | 22.38939 | 108.40327 | 24561 ft | 403 kts | 306° |
| 2026-04-23 03:15 | 22.40721 | 108.38036 | 24558 ft | 403 kts | 306° |
| 2026-04-23 03:16 | 22.42524 | 108.35718 | 24556 ft | 403 kts | 305° |
| 2026-04-23 03:16 | 22.44324 | 108.33403 | 24565 ft | 402 kts | 305° |
| 2026-04-23 03:16 | 22.47916 | 108.28778 | 24566 ft | 401 kts | 305° |
| 2026-04-23 03:17 | 22.49707 | 108.26472 | 24568 ft | 401 kts | 305° |
| 2026-04-23 03:17 | 22.51502 | 108.24159 | 24564 ft | 400 kts | 305° |
| 2026-04-23 03:17 | 22.53346 | 108.21888 | 24559 ft | 404 kts | 312° |
| 2026-04-23 03:17 | 22.55687 | 108.20159 | 24575 ft | 415 kts | 329° |
| 2026-04-23 03:18 | 22.58478 | 108.19201 | 24570 ft | 429 kts | 345° |
| 2026-04-23 03:18 | 22.61498 | 108.19150 | 24569 ft | 443 kts | 2° |
| 2026-04-23 03:18 | 22.64500 | 108.20073 | 24569 ft | 456 kts | 20° |
| 2026-04-23 03:18 | 22.67202 | 108.21936 | 24589 ft | 464 kts | 32° |
| 2026-04-23 03:19 | 22.69759 | 108.24071 | 24570 ft | 466 kts | 34° |
| 2026-04-23 03:19 | 22.72286 | 108.26270 | 24574 ft | 466 kts | 34° |
| 2026-04-23 03:19 | 22.74808 | 108.28478 | 24562 ft | 466 kts | 34° |
| 2026-04-23 03:19 | 22.77338 | 108.30675 | 24560 ft | 466 kts | 34° |
| 2026-04-23 03:20 | 22.79882 | 108.32858 | 24560 ft | 466 kts | 33° |
| 2026-04-23 03:20 | 22.82435 | 108.35028 | 24561 ft | 466 kts | 33° |
| 2026-04-23 03:20 | 22.84989 | 108.37185 | 24560 ft | 466 kts | 33° |
| 2026-04-23 03:20 | 22.87553 | 108.39346 | 24559 ft | 467 kts | 33° |
| 2026-04-23 03:21 | 22.90119 | 108.41507 | 24556 ft | 467 kts | 33° |
| 2026-04-23 03:21 | 22.92682 | 108.43667 | 24552 ft | 467 kts | 33° |
| 2026-04-23 03:21 | 22.95245 | 108.45830 | 24560 ft | 467 kts | 33° |
| 2026-04-23 03:21 | 22.97773 | 108.47965 | 24558 ft | 467 kts | 33° |
| 2026-04-23 03:22 | 23.00366 | 108.50152 | 24556 ft | 467 kts | 33° |
| 2026-04-23 03:22 | 23.02894 | 108.52290 | 24548 ft | 466 kts | 33° |
| 2026-04-23 03:22 | 23.05449 | 108.54455 | 24557 ft | 466 kts | 33° |
| 2026-04-23 03:22 | 23.08004 | 108.56620 | 24556 ft | 466 kts | 33° |
| 2026-04-23 03:23 | 23.10562 | 108.58786 | 24569 ft | 466 kts | 33° |
| 2026-04-23 03:23 | 23.13120 | 108.60955 | 24563 ft | 467 kts | 33° |
| 2026-04-23 03:23 | 23.15687 | 108.63130 | 24557 ft | 467 kts | 33° |
| 2026-04-23 03:23 | 23.18246 | 108.65301 | 24561 ft | 468 kts | 33° |
| 2026-04-23 03:24 | 23.20814 | 108.67482 | 24560 ft | 468 kts | 33° |
| 2026-04-23 03:24 | 23.23380 | 108.69660 | 24558 ft | 468 kts | 33° |
| 2026-04-23 03:24 | 23.25946 | 108.71839 | 24555 ft | 468 kts | 33° |
| 2026-04-23 03:24 | 23.28513 | 108.74014 | 24567 ft | 468 kts | 33° |
| 2026-04-23 03:25 | 23.31081 | 108.76190 | 24569 ft | 468 kts | 33° |
| 2026-04-23 03:25 | 23.33645 | 108.78362 | 24568 ft | 468 kts | 33° |
| 2026-04-23 03:25 | 23.36220 | 108.80545 | 24565 ft | 468 kts | 33° |
| 2026-04-23 03:25 | 23.38785 | 108.82722 | 24566 ft | 468 kts | 33° |
| 2026-04-23 03:26 | 23.41331 | 108.84883 | 24567 ft | 468 kts | 33° |
| 2026-04-23 03:26 | 23.43899 | 108.87065 | 24569 ft | 468 kts | 33° |
| 2026-04-23 03:26 | 23.46467 | 108.89249 | 24566 ft | 468 kts | 33° |
| 2026-04-23 03:26 | 23.49040 | 108.91437 | 24563 ft | 468 kts | 33° |
| 2026-04-23 03:27 | 23.51601 | 108.93618 | 24568 ft | 468 kts | 33° |
| 2026-04-23 03:27 | 23.54170 | 108.95805 | 24567 ft | 469 kts | 33° |
| 2026-04-23 03:27 | 23.56741 | 108.97995 | 24559 ft | 469 kts | 33° |
| 2026-04-23 03:27 | 23.59310 | 109.00185 | 24565 ft | 469 kts | 33° |
| 2026-04-23 03:28 | 23.61876 | 109.02373 | 24570 ft | 469 kts | 33° |
| 2026-04-23 03:28 | 23.64451 | 109.04571 | 24568 ft | 469 kts | 33° |
| 2026-04-23 03:28 | 23.67024 | 109.06768 | 24563 ft | 470 kts | 33° |
| 2026-04-23 03:28 | 23.69598 | 109.08968 | 24567 ft | 470 kts | 33° |
| 2026-04-23 03:29 | 23.72167 | 109.11163 | 24565 ft | 470 kts | 33° |
| 2026-04-23 03:29 | 23.74740 | 109.13363 | 24565 ft | 470 kts | 32° |
| 2026-04-23 03:29 | 23.77338 | 109.15526 | 24564 ft | 468 kts | 30° |
| 2026-04-23 03:29 | 23.80005 | 109.17555 | 24565 ft | 467 kts | 28° |
| 2026-04-23 03:30 | 23.82711 | 109.19518 | 24572 ft | 466 kts | 27° |
| 2026-04-23 03:30 | 23.85426 | 109.21455 | 24568 ft | 467 kts | 27° |
| 2026-04-23 03:30 | 23.88143 | 109.23394 | 24565 ft | 467 kts | 27° |
| 2026-04-23 03:30 | 23.90856 | 109.25344 | 24561 ft | 467 kts | 27° |
| 2026-04-23 03:31 | 23.93561 | 109.27303 | 24569 ft | 467 kts | 27° |
| 2026-04-23 03:31 | 23.96271 | 109.29277 | 24570 ft | 467 kts | 28° |
| 2026-04-23 03:31 | 23.98974 | 109.31254 | 24565 ft | 468 kts | 28° |
| 2026-04-23 03:31 | 24.01678 | 109.33236 | 24560 ft | 468 kts | 28° |
| 2026-04-23 03:32 | 24.04345 | 109.35192 | 24572 ft | 468 kts | 28° |
| 2026-04-23 03:32 | 24.07046 | 109.37176 | 24567 ft | 468 kts | 28° |
| 2026-04-23 03:32 | 24.09749 | 109.39161 | 24574 ft | 468 kts | 28° |
| 2026-04-23 03:32 | 24.12451 | 109.41143 | 24572 ft | 468 kts | 28° |
| 2026-04-23 03:33 | 24.15154 | 109.43128 | 24566 ft | 468 kts | 28° |
| 2026-04-23 03:33 | 24.17859 | 109.45115 | 24563 ft | 468 kts | 28° |
| 2026-04-23 03:33 | 24.20560 | 109.47101 | 24544 ft | 467 kts | 27° |
| 2026-04-23 03:33 | 24.23256 | 109.49085 | 24579 ft | 466 kts | 28° |
| 2026-04-23 03:34 | 24.25948 | 109.51064 | 24576 ft | 467 kts | 28° |
| 2026-04-23 03:34 | 24.28651 | 109.53054 | 24567 ft | 467 kts | 28° |
| 2026-04-23 03:34 | 24.31344 | 109.55038 | 24568 ft | 467 kts | 28° |
| 2026-04-23 03:34 | 24.34051 | 109.57033 | 24576 ft | 468 kts | 27° |
| 2026-04-23 03:35 | 24.36752 | 109.59025 | 24566 ft | 468 kts | 27° |
| 2026-04-23 03:35 | 24.39457 | 109.61021 | 24569 ft | 468 kts | 27° |
| 2026-04-23 03:35 | 24.42162 | 109.63017 | 24568 ft | 469 kts | 27° |
| 2026-04-23 03:35 | 24.44868 | 109.65016 | 24572 ft | 469 kts | 28° |
| 2026-04-23 03:36 | 24.47576 | 109.67017 | 24573 ft | 469 kts | 28° |
| 2026-04-23 03:36 | 24.50283 | 109.69018 | 24573 ft | 469 kts | 28° |
| 2026-04-23 03:36 | 24.52994 | 109.71024 | 24584 ft | 470 kts | 28° |
| 2026-04-23 03:36 | 24.55709 | 109.73034 | 24581 ft | 471 kts | 28° |
| 2026-04-23 03:37 | 24.58426 | 109.75045 | 24572 ft | 471 kts | 28° |
| 2026-04-23 03:37 | 24.61115 | 109.77038 | 24579 ft | 472 kts | 28° |
| 2026-04-23 03:37 | 24.63868 | 109.79083 | 24578 ft | 472 kts | 28° |
| 2026-04-23 03:37 | 24.66592 | 109.81102 | 24576 ft | 473 kts | 27° |
| 2026-04-23 03:38 | 24.69318 | 109.83122 | 24584 ft | 472 kts | 27° |
| 2026-04-23 03:38 | 24.72008 | 109.85114 | 24581 ft | 472 kts | 28° |
| 2026-04-23 03:38 | 24.74737 | 109.87134 | 24583 ft | 472 kts | 27° |
| 2026-04-23 03:38 | 24.77458 | 109.89149 | 24588 ft | 472 kts | 28° |
| 2026-04-23 03:39 | 24.80182 | 109.91168 | 24588 ft | 472 kts | 28° |
| 2026-04-23 03:39 | 24.82903 | 109.93186 | 24583 ft | 472 kts | 28° |
| 2026-04-23 03:39 | 24.85622 | 109.95204 | 24592 ft | 471 kts | 27° |
| 2026-04-23 03:39 | 24.88344 | 109.97226 | 24597 ft | 472 kts | 28° |
| 2026-04-23 03:40 | 24.91068 | 109.99251 | 24589 ft | 472 kts | 28° |
| 2026-04-23 03:40 | 24.93787 | 110.01273 | 24600 ft | 472 kts | 27° |
| 2026-04-23 03:40 | 24.96504 | 110.03295 | 24607 ft | 472 kts | 28° |
| 2026-04-23 03:40 | 24.99229 | 110.05322 | 24577 ft | 472 kts | 28° |
| 2026-04-23 03:41 | 25.01938 | 110.07340 | 24626 ft | 470 kts | 28° |
| 2026-04-23 03:41 | 25.04658 | 110.09368 | 24618 ft | 471 kts | 28° |
| 2026-04-23 03:41 | 25.07377 | 110.11395 | 24623 ft | 472 kts | 28° |
| 2026-04-23 03:41 | 25.10100 | 110.13426 | 24625 ft | 473 kts | 28° |
| 2026-04-23 03:42 | 25.12835 | 110.15469 | 24622 ft | 474 kts | 28° |
| 2026-04-23 03:42 | 25.15565 | 110.17508 | 24623 ft | 475 kts | 28° |
| 2026-04-23 03:42 | 25.18305 | 110.19555 | 24624 ft | 475 kts | 28° |
| 2026-04-23 03:42 | 25.21043 | 110.21602 | 24625 ft | 476 kts | 28° |
| 2026-04-23 03:43 | 25.23787 | 110.23647 | 24611 ft | 476 kts | 28° |
| 2026-04-23 03:43 | 25.26536 | 110.25693 | 24608 ft | 476 kts | 28° |
| 2026-04-23 03:43 | 25.29284 | 110.27738 | 24607 ft | 476 kts | 28° |
| 2026-04-23 03:43 | 25.32030 | 110.29783 | 24599 ft | 476 kts | 28° |
| 2026-04-23 03:44 | 25.34769 | 110.31826 | 24599 ft | 475 kts | 28° |
| 2026-04-23 03:44 | 25.37507 | 110.33870 | 24595 ft | 474 kts | 28° |
| 2026-04-23 03:44 | 25.40241 | 110.35911 | 24596 ft | 474 kts | 28° |
| 2026-04-23 03:44 | 25.42977 | 110.37955 | 24599 ft | 474 kts | 27° |
| 2026-04-23 03:45 | 25.45679 | 110.39957 | 24595 ft | 473 kts | 27° |
| 2026-04-23 03:45 | 25.48419 | 110.41972 | 24609 ft | 473 kts | 27° |
| 2026-04-23 03:45 | 25.51165 | 110.43987 | 24594 ft | 474 kts | 27° |
| 2026-04-23 03:45 | 25.53912 | 110.46008 | 24602 ft | 474 kts | 27° |
| 2026-04-23 03:46 | 25.56658 | 110.48032 | 24598 ft | 474 kts | 27° |
| 2026-04-23 03:46 | 25.59428 | 110.50004 | 24599 ft | 473 kts | 26° |
| 2026-04-23 03:46 | 25.62224 | 110.51926 | 24611 ft | 473 kts | 25° |
| 2026-04-23 03:46 | 25.65023 | 110.53835 | 24608 ft | 473 kts | 25° |
| 2026-04-23 03:47 | 25.67826 | 110.55755 | 24605 ft | 473 kts | 25° |
| 2026-04-23 03:47 | 25.70619 | 110.57683 | 24619 ft | 473 kts | 25° |
| 2026-04-23 03:47 | 25.73413 | 110.59623 | 24604 ft | 473 kts | 26° |
| 2026-04-23 03:47 | 25.76199 | 110.61556 | 24620 ft | 471 kts | 25° |
| 2026-04-23 03:48 | 25.78994 | 110.63458 | 24622 ft | 472 kts | 25° |
| 2026-04-23 03:48 | 25.81802 | 110.65346 | 24615 ft | 472 kts | 25° |
| 2026-04-23 03:48 | 25.84616 | 110.67231 | 24611 ft | 472 kts | 24° |
| 2026-04-23 03:48 | 25.87432 | 110.69120 | 24616 ft | 472 kts | 24° |
| 2026-04-23 03:49 | 25.90237 | 110.71006 | 24627 ft | 473 kts | 25° |
| 2026-04-23 03:49 | 25.93055 | 110.72905 | 24632 ft | 473 kts | 25° |
| 2026-04-23 03:49 | 25.95874 | 110.74809 | 24602 ft | 473 kts | 25° |
| 2026-04-23 03:49 | 25.98678 | 110.76707 | 24604 ft | 472 kts | 25° |
| 2026-04-23 03:50 | 26.01475 | 110.78602 | 24641 ft | 471 kts | 25° |
| 2026-04-23 03:50 | 26.04283 | 110.80502 | 24628 ft | 474 kts | 25° |
| 2026-04-23 03:50 | 26.07072 | 110.82391 | 24627 ft | 475 kts | 25° |
| 2026-04-23 03:50 | 26.09890 | 110.84301 | 24646 ft | 475 kts | 25° |
| 2026-04-23 03:51 | 26.12721 | 110.86222 | 24636 ft | 476 kts | 25° |
| 2026-04-23 03:51 | 26.15548 | 110.88141 | 24629 ft | 476 kts | 25° |
| 2026-04-23 03:51 | 26.18368 | 110.90058 | 24610 ft | 474 kts | 25° |
| 2026-04-23 03:51 | 26.21182 | 110.91973 | 24608 ft | 471 kts | 25° |
| 2026-04-23 03:52 | 26.23969 | 110.93870 | 24618 ft | 469 kts | 24° |
| 2026-04-23 03:52 | 26.26752 | 110.95762 | 24637 ft | 470 kts | 25° |
| 2026-04-23 03:52 | 26.29561 | 110.97670 | 24625 ft | 477 kts | 25° |
| 2026-04-23 03:52 | 26.32408 | 110.99603 | 24633 ft | 480 kts | 25° |
| 2026-04-23 03:53 | 26.35246 | 111.01537 | 24670 ft | 476 kts | 25° |
| 2026-04-23 03:53 | 26.38058 | 111.03458 | 24650 ft | 473 kts | 25° |
| 2026-04-23 03:53 | 26.40863 | 111.05374 | 24629 ft | 474 kts | 25° |
| 2026-04-23 03:53 | 26.43671 | 111.07293 | 24645 ft | 473 kts | 25° |
| 2026-04-23 03:54 | 26.46471 | 111.09207 | 24649 ft | 472 kts | 25° |
| 2026-04-23 03:54 | 26.49273 | 111.11120 | 24626 ft | 473 kts | 25° |
| 2026-04-23 03:54 | 26.52038 | 111.13011 | 24634 ft | 471 kts | 24° |
| 2026-04-23 03:54 | 26.54831 | 111.14923 | 24612 ft | 470 kts | 24° |
| 2026-04-23 03:55 | 26.57608 | 111.16825 | 24636 ft | 468 kts | 25° |
| 2026-04-23 03:55 | 26.60376 | 111.18750 | 24647 ft | 469 kts | 26° |
| 2026-04-23 03:55 | 26.63121 | 111.20736 | 24634 ft | 471 kts | 26° |
| 2026-04-23 03:55 | 26.65861 | 111.22754 | 24636 ft | 471 kts | 27° |
| 2026-04-23 03:56 | 26.68596 | 111.24775 | 24646 ft | 472 kts | 27° |
| 2026-04-23 03:56 | 26.71341 | 111.26800 | 24645 ft | 474 kts | 27° |
| 2026-04-23 03:56 | 26.74104 | 111.28829 | 24670 ft | 474 kts | 27° |
| 2026-04-23 03:56 | 26.76869 | 111.30855 | 24647 ft | 475 kts | 27° |
| 2026-04-23 03:57 | 26.79628 | 111.32876 | 24628 ft | 473 kts | 26° |
| 2026-04-23 03:57 | 26.82376 | 111.34889 | 24643 ft | 471 kts | 27° |
| 2026-04-23 03:57 | 26.85123 | 111.36902 | 24638 ft | 471 kts | 26° |
| 2026-04-23 03:57 | 26.87865 | 111.38912 | 24636 ft | 470 kts | 26° |
| 2026-04-23 03:58 | 26.90598 | 111.40916 | 24639 ft | 469 kts | 26° |
| 2026-04-23 03:58 | 26.93340 | 111.42901 | 24646 ft | 468 kts | 25° |
| 2026-04-23 03:58 | 26.96128 | 111.44776 | 24644 ft | 467 kts | 23° |
| 2026-04-23 03:58 | 26.98937 | 111.46593 | 24643 ft | 467 kts | 22° |
| 2026-04-23 03:59 | 27.00806 | 111.47793 | 24638 ft | 467 kts | 23° |
| 2026-04-23 03:59 | 27.03623 | 111.49612 | 24636 ft | 468 kts | 23° |
| 2026-04-23 03:59 | 27.06440 | 111.51450 | 24649 ft | 468 kts | 23° |
| 2026-04-23 03:59 | 27.09251 | 111.53302 | 24642 ft | 469 kts | 24° |
| 2026-04-23 04:00 | 27.12062 | 111.55162 | 24635 ft | 469 kts | 24° |
| 2026-04-23 04:00 | 27.14873 | 111.57024 | 24644 ft | 469 kts | 24° |
| 2026-04-23 04:00 | 27.17685 | 111.58887 | 24637 ft | 470 kts | 24° |
| 2026-04-23 04:00 | 27.20484 | 111.60783 | 24630 ft | 470 kts | 25° |
| 2026-04-23 04:01 | 27.23268 | 111.62710 | 24633 ft | 470 kts | 25° |
| 2026-04-23 04:01 | 27.26046 | 111.64648 | 24633 ft | 469 kts | 25° |
| 2026-04-23 04:01 | 27.28792 | 111.66568 | 24537 ft | 460 kts | 26° |
| 2026-04-23 04:01 | 27.31491 | 111.68452 | 24578 ft | 455 kts | 26° |
| 2026-04-23 04:02 | 27.34189 | 111.70326 | 24763 ft | 458 kts | 24° |
| 2026-04-23 04:02 | 27.36935 | 111.72225 | 24732 ft | 468 kts | 25° |
| 2026-04-23 04:02 | 27.39721 | 111.74153 | 24691 ft | 471 kts | 25° |
| 2026-04-23 04:02 | 27.42466 | 111.76063 | 24663 ft | 469 kts | 25° |
| 2026-04-23 04:03 | 27.45230 | 111.77989 | 24632 ft | 465 kts | 25° |
| 2026-04-23 04:03 | 27.47973 | 111.79899 | 24631 ft | 462 kts | 25° |
| 2026-04-23 04:03 | 27.50705 | 111.81798 | 24628 ft | 461 kts | 25° |
| 2026-04-23 04:03 | 27.53438 | 111.83689 | 24638 ft | 460 kts | 25° |
| 2026-04-23 04:04 | 27.56161 | 111.85571 | 24640 ft | 460 kts | 25° |
| 2026-04-23 04:04 | 27.58898 | 111.87461 | 24642 ft | 462 kts | 25° |
| 2026-04-23 04:04 | 27.61653 | 111.89366 | 24637 ft | 464 kts | 25° |
| 2026-04-23 04:04 | 27.64405 | 111.91272 | 24630 ft | 465 kts | 25° |
| 2026-04-23 04:05 | 27.67162 | 111.93184 | 24628 ft | 465 kts | 25° |
| 2026-04-23 04:05 | 27.69915 | 111.95096 | 24635 ft | 466 kts | 25° |
| 2026-04-23 04:05 | 27.72676 | 111.97014 | 24637 ft | 466 kts | 25° |
| 2026-04-23 04:05 | 27.75441 | 111.98935 | 24632 ft | 466 kts | 25° |
| 2026-04-23 04:06 | 27.78201 | 112.00855 | 24630 ft | 466 kts | 25° |
| 2026-04-23 04:06 | 27.80957 | 112.02781 | 24631 ft | 466 kts | 25° |
| 2026-04-23 04:06 | 27.83708 | 112.04710 | 24626 ft | 465 kts | 25° |
| 2026-04-23 04:06 | 27.86450 | 112.06636 | 24637 ft | 464 kts | 26° |
| 2026-04-23 04:07 | 27.89191 | 112.08562 | 24636 ft | 464 kts | 26° |
| 2026-04-23 04:07 | 27.91899 | 112.10465 | 24634 ft | 463 kts | 26° |
| 2026-04-23 04:07 | 27.94636 | 112.12388 | 24630 ft | 463 kts | 26° |
| 2026-04-23 04:07 | 27.97362 | 112.14301 | 24634 ft | 462 kts | 25° |
| 2026-04-23 04:08 | 28.00105 | 112.16196 | 24628 ft | 461 kts | 25° |
| 2026-04-23 04:08 | 28.02846 | 112.18077 | 24627 ft | 461 kts | 25° |
| 2026-04-23 04:08 | 28.05587 | 112.19960 | 24630 ft | 461 kts | 25° |
| 2026-04-23 04:08 | 28.08301 | 112.21918 | 24628 ft | 464 kts | 28° |
| 2026-04-23 04:09 | 28.10931 | 112.24037 | 24639 ft | 465 kts | 31° |
| 2026-04-23 04:09 | 28.13544 | 112.26216 | 24622 ft | 466 kts | 31° |
| 2026-04-23 04:09 | 28.16162 | 112.28377 | 24625 ft | 465 kts | 30° |
| 2026-04-23 04:09 | 28.18790 | 112.30510 | 24630 ft | 464 kts | 30° |
| 2026-04-23 04:10 | 28.21433 | 112.32616 | 24628 ft | 464 kts | 29° |
| 2026-04-23 04:10 | 28.24081 | 112.34708 | 24626 ft | 464 kts | 29° |
| 2026-04-23 04:10 | 28.26732 | 112.36800 | 24626 ft | 463 kts | 29° |
| 2026-04-23 04:10 | 28.29378 | 112.38890 | 24630 ft | 463 kts | 29° |
| 2026-04-23 04:11 | 28.32021 | 112.40983 | 24628 ft | 463 kts | 29° |
| 2026-04-23 04:11 | 28.34660 | 112.43078 | 24623 ft | 463 kts | 29° |
| 2026-04-23 04:11 | 28.37294 | 112.45172 | 24627 ft | 462 kts | 29° |
| 2026-04-23 04:11 | 28.39929 | 112.47270 | 24631 ft | 462 kts | 29° |
| 2026-04-23 04:12 | 28.42562 | 112.49368 | 24629 ft | 463 kts | 29° |
| 2026-04-23 04:12 | 28.45198 | 112.51471 | 24622 ft | 463 kts | 29° |
| 2026-04-23 04:12 | 28.47828 | 112.53569 | 24627 ft | 462 kts | 29° |
| 2026-04-23 04:12 | 28.50457 | 112.55668 | 24632 ft | 462 kts | 29° |
| 2026-04-23 04:13 | 28.53093 | 112.57774 | 24632 ft | 462 kts | 29° |
| 2026-04-23 04:13 | 28.55725 | 112.59878 | 24628 ft | 462 kts | 29° |
| 2026-04-23 04:13 | 28.58351 | 112.61977 | 24629 ft | 462 kts | 29° |
| 2026-04-23 04:13 | 28.60980 | 112.64082 | 24626 ft | 462 kts | 29° |
| 2026-04-23 04:14 | 28.63610 | 112.66188 | 24622 ft | 462 kts | 29° |
| 2026-04-23 04:14 | 28.66235 | 112.68291 | 24620 ft | 461 kts | 29° |
| 2026-04-23 04:14 | 28.68865 | 112.70400 | 24622 ft | 461 kts | 29° |
| 2026-04-23 04:14 | 28.71445 | 112.72470 | 24623 ft | 461 kts | 30° |
| 2026-04-23 04:15 | 28.74065 | 112.74573 | 24623 ft | 460 kts | 30° |
| 2026-04-23 04:15 | 28.76675 | 112.76670 | 24620 ft | 460 kts | 30° |
| 2026-04-23 04:15 | 28.81932 | 112.80897 | 24625 ft | 458 kts | 30° |
| 2026-04-23 04:16 | 28.84504 | 112.82966 | 24627 ft | 458 kts | 30° |
| 2026-04-23 04:16 | 28.87103 | 112.85060 | 24625 ft | 457 kts | 30° |
| 2026-04-23 04:16 | 28.89706 | 112.87157 | 24624 ft | 457 kts | 30° |
| 2026-04-23 04:16 | 28.92298 | 112.89247 | 24626 ft | 457 kts | 30° |
| 2026-04-23 04:17 | 28.94898 | 112.91345 | 24611 ft | 457 kts | 30° |
| 2026-04-23 04:17 | 28.97486 | 112.93434 | 24609 ft | 456 kts | 30° |
| 2026-04-23 04:17 | 29.00081 | 112.95531 | 24609 ft | 456 kts | 30° |
| 2026-04-23 04:17 | 29.02665 | 112.97619 | 24613 ft | 456 kts | 30° |
| 2026-04-23 04:18 | 29.05256 | 112.99715 | 24612 ft | 456 kts | 30° |
| 2026-04-23 04:18 | 29.07844 | 113.01810 | 24604 ft | 456 kts | 30° |
| 2026-04-23 04:18 | 29.10438 | 113.03911 | 24611 ft | 456 kts | 30° |
| 2026-04-23 04:18 | 29.13026 | 113.06008 | 24599 ft | 456 kts | 30° |
| 2026-04-23 04:19 | 29.15609 | 113.08103 | 24612 ft | 455 kts | 30° |
| 2026-04-23 04:19 | 29.18194 | 113.10200 | 24599 ft | 455 kts | 30° |
| 2026-04-23 04:19 | 29.20775 | 113.12297 | 24611 ft | 455 kts | 30° |
| 2026-04-23 04:19 | 29.23356 | 113.14394 | 24611 ft | 455 kts | 30° |
| 2026-04-23 04:20 | 29.25933 | 113.16490 | 24610 ft | 455 kts | 30° |
| 2026-04-23 04:20 | 29.28512 | 113.18589 | 24625 ft | 455 kts | 30° |
| 2026-04-23 04:20 | 29.31091 | 113.20688 | 24610 ft | 452 kts | 30° |
| 2026-04-23 04:20 | 29.33615 | 113.22747 | 24594 ft | 440 kts | 30° |
| 2026-04-23 04:21 | 29.36115 | 113.24700 | 24603 ft | 430 kts | 24° |
| 2026-04-23 04:21 | 29.38725 | 113.26356 | 24618 ft | 428 kts | 21° |
| 2026-04-23 04:21 | 29.41374 | 113.27913 | 24580 ft | 428 kts | 20° |
| 2026-04-23 04:21 | 29.44045 | 113.29450 | 24219 ft | 428 kts | 20° |
| 2026-04-23 04:22 | 29.46657 | 113.30958 | 23832 ft | 425 kts | 20° |
| 2026-04-23 04:22 | 29.49320 | 113.32512 | 23359 ft | 422 kts | 20° |
| 2026-04-23 04:22 | 29.51918 | 113.34042 | 22861 ft | 419 kts | 21° |
| 2026-04-23 04:22 | 29.54494 | 113.35572 | 22403 ft | 415 kts | 21° |
| 2026-04-23 04:23 | 29.57017 | 113.37075 | 21944 ft | 412 kts | 21° |
| 2026-04-23 04:23 | 29.59551 | 113.38589 | 21491 ft | 409 kts | 21° |
| 2026-04-23 04:23 | 29.62060 | 113.40089 | 21052 ft | 405 kts | 21° |
| 2026-04-23 04:23 | 29.64556 | 113.41582 | 20608 ft | 403 kts | 22° |
| 2026-04-23 04:24 | 29.67040 | 113.43069 | 20144 ft | 401 kts | 22° |
| 2026-04-23 04:24 | 29.69506 | 113.44545 | 19704 ft | 398 kts | 22° |
| 2026-04-23 04:24 | 29.71958 | 113.46013 | 19245 ft | 397 kts | 22° |
| 2026-04-23 04:24 | 29.74406 | 113.47480 | 18788 ft | 395 kts | 23° |
| 2026-04-23 04:25 | 29.76838 | 113.48937 | 18354 ft | 394 kts | 23° |
| 2026-04-23 04:25 | 29.79261 | 113.50391 | 17839 ft | 392 kts | 23° |
| 2026-04-23 04:25 | 29.81671 | 113.51839 | 17382 ft | 389 kts | 23° |
| 2026-04-23 04:25 | 29.84061 | 113.53275 | 16922 ft | 386 kts | 23° |
| 2026-04-23 04:26 | 29.86433 | 113.54701 | 16480 ft | 383 kts | 23° |
| 2026-04-23 04:26 | 29.88786 | 113.56116 | 16031 ft | 380 kts | 23° |
| 2026-04-23 04:26 | 29.91124 | 113.57522 | 15587 ft | 378 kts | 23° |
| 2026-04-23 04:26 | 29.93449 | 113.58921 | 15139 ft | 376 kts | 24° |
| 2026-04-23 04:27 | 29.95781 | 113.60272 | 14693 ft | 373 kts | 21° |
| 2026-04-23 04:27 | 29.98148 | 113.61482 | 14252 ft | 370 kts | 19° |
| 2026-04-23 04:27 | 30.00516 | 113.62632 | 13801 ft | 369 kts | 18° |
| 2026-04-23 04:28 | 30.05217 | 113.64913 | 12897 ft | 363 kts | 19° |
| 2026-04-23 04:28 | 30.07490 | 113.66033 | 12492 ft | 359 kts | 20° |
| 2026-04-23 04:28 | 30.09775 | 113.67167 | 12059 ft | 356 kts | 20° |
| 2026-04-23 04:28 | 30.12036 | 113.68293 | 11642 ft | 352 kts | 20° |
| 2026-04-23 04:29 | 30.14274 | 113.69411 | 11229 ft | 349 kts | 21° |
| 2026-04-23 04:29 | 30.16493 | 113.70519 | 10824 ft | 345 kts | 21° |
| 2026-04-23 04:29 | 30.18684 | 113.71615 | 10546 ft | 338 kts | 21° |
| 2026-04-23 04:29 | 30.20810 | 113.72680 | 10385 ft | 328 kts | 21° |
| 2026-04-23 04:30 | 30.22874 | 113.73713 | 10227 ft | 318 kts | 21° |
| 2026-04-23 04:30 | 30.24879 | 113.74717 | 10070 ft | 309 kts | 21° |
| 2026-04-23 04:30 | 30.26833 | 113.75695 | 9921 ft | 300 kts | 21° |
| 2026-04-23 04:30 | 30.28685 | 113.76624 | 9902 ft | 281 kts | 21° |
| 2026-04-23 04:31 | 30.30486 | 113.77526 | 9287 ft | 282 kts | 21° |
| 2026-04-23 04:31 | 30.32272 | 113.78421 | 8887 ft | 277 kts | 21° |
| 2026-04-23 04:31 | 30.34034 | 113.79304 | 8604 ft | 276 kts | 21° |
| 2026-04-23 04:31 | 30.35794 | 113.80186 | 8420 ft | 271 kts | 21° |
| 2026-04-23 04:32 | 30.37502 | 113.81044 | 8290 ft | 266 kts | 21° |
| 2026-04-23 04:32 | 30.39181 | 113.81887 | 8164 ft | 259 kts | 21° |
| 2026-04-23 04:32 | 30.40794 | 113.82764 | 8039 ft | 255 kts | 31° |
| 2026-04-23 04:32 | 30.42060 | 113.84213 | 7837 ft | 257 kts | 47° |
| 2026-04-23 04:33 | 30.43186 | 113.85788 | 7566 ft | 257 kts | 47° |
| 2026-04-23 04:33 | 30.44344 | 113.87401 | 7314 ft | 257 kts | 47° |
| 2026-04-23 04:33 | 30.45492 | 113.88989 | 7047 ft | 257 kts | 47° |
| 2026-04-23 04:33 | 30.46638 | 113.90572 | 6790 ft | 256 kts | 47° |
| 2026-04-23 04:34 | 30.47766 | 113.92127 | 6538 ft | 255 kts | 47° |
| 2026-04-23 04:34 | 30.48912 | 113.93698 | 6266 ft | 254 kts | 45° |
| 2026-04-23 04:34 | 30.50172 | 113.95090 | 6107 ft | 246 kts | 38° |
| 2026-04-23 04:34 | 30.51479 | 113.96379 | 5825 ft | 246 kts | 38° |
| 2026-04-23 04:35 | 30.52777 | 113.97664 | 5573 ft | 245 kts | 38° |
| 2026-04-23 04:35 | 30.54058 | 113.98949 | 5343 ft | 238 kts | 39° |
| 2026-04-23 04:35 | 30.55274 | 114.00178 | 5098 ft | 226 kts | 39° |
| 2026-04-23 04:35 | 30.56461 | 114.01305 | 4829 ft | 215 kts | 37° |
| 2026-04-23 04:36 | 30.57577 | 114.02386 | 4597 ft | 203 kts | 38° |
| 2026-04-23 04:36 | 30.58588 | 114.03405 | 4590 ft | 182 kts | 39° |
| 2026-04-23 04:36 | 30.59529 | 114.04367 | 4364 ft | 177 kts | 39° |
| 2026-04-23 04:36 | 30.60450 | 114.05313 | 4137 ft | 176 kts | 39° |
| 2026-04-23 04:37 | 30.61359 | 114.06248 | 3902 ft | 174 kts | 39° |
| 2026-04-23 04:37 | 30.62252 | 114.07167 | 3665 ft | 170 kts | 39° |
| 2026-04-23 04:37 | 30.63119 | 114.08061 | 3455 ft | 167 kts | 39° |
| 2026-04-23 04:37 | 30.63977 | 114.08946 | 3233 ft | 162 kts | 39° |
| 2026-04-23 04:38 | 30.64794 | 114.09788 | 3019 ft | 151 kts | 39° |
| 2026-04-23 04:38 | 30.65565 | 114.10581 | 2843 ft | 151 kts | 39° |
| 2026-04-23 04:38 | 30.66356 | 114.11395 | 2626 ft | 151 kts | 39° |
| 2026-04-23 04:38 | 30.67136 | 114.12198 | 2405 ft | 147 kts | 39° |
| 2026-04-23 04:39 | 30.67889 | 114.12974 | 2222 ft | 145 kts | 39° |
| 2026-04-23 04:39 | 30.68646 | 114.13753 | 2027 ft | 145 kts | 39° |
| 2026-04-23 04:39 | 30.69401 | 114.14530 | 1820 ft | 144 kts | 39° |
| 2026-04-23 04:39 | 30.70155 | 114.15306 | 1640 ft | 146 kts | 39° |
| 2026-04-23 04:40 | 30.70922 | 114.16096 | 1452 ft | 147 kts | 39° |
| 2026-04-23 04:40 | 30.71685 | 114.16882 | 1217 ft | 144 kts | 39° |
| 2026-04-23 04:40 | 30.71827 | 114.17028 | 1178 ft | 144 kts | 39° |
| 2026-04-23 04:41 | 30.71932 | 114.17135 | 1152 ft | 144 kts | 39° |
| 2026-04-23 04:41 | 30.72686 | 114.17911 | 960 ft | 146 kts | 38° |
| 2026-04-23 04:42 | 30.73438 | 114.18690 | 726 ft | 145 kts | 40° |
| 2026-04-23 04:42 | 30.74182 | 114.19479 | 549 ft | 145 kts | 40° |
| 2026-04-23 04:42 | 30.74934 | 114.20239 | 359 ft | 142 kts | 40° |
| 2026-04-23 04:42 | 30.75694 | 114.21008 | 183 ft | 146 kts | 40° |
| 2026-04-23 04:43 | 30.76442 | 114.21769 | 106 ft | 132 kts | 41° |
| 2026-04-23 04:43 | 30.76967 | 114.22305 | 108 ft | 71 kts | 41° |
| 2026-04-23 04:43 | 30.77186 | 114.22497 | 107 ft | 26 kts | 26° |
| 2026-04-23 04:43 | 30.77282 | 114.22535 | 107 ft | 10 kts | 14° |
| 2026-04-23 04:44 | 30.77348 | 114.22549 | 107 ft | 7 kts | 356° |
| 2026-04-23 04:44 | 30.77383 | 114.22518 | 104 ft | 7 kts | 292° |
| 2026-04-23 04:44 | 30.77384 | 114.22483 | 106 ft | 7 kts | 264° |
| 2026-04-23 04:44 | 30.77347 | 114.22429 | 106 ft | 6 kts | 220° |
| 2026-04-23 04:45 | 30.77324 | 114.22407 | 106 ft | 6 kts | 220° |
| 2026-04-23 04:45 | 30.77281 | 114.22362 | 106 ft | 6 kts | 222° |
| 2026-04-23 04:45 | 30.77249 | 114.22328 | 105 ft | 6 kts | 222° |
| 2026-04-23 04:45 | 30.77217 | 114.22296 | 106 ft | 6 kts | 221° |
| 2026-04-23 04:46 | 30.77184 | 114.22263 | 106 ft | 7 kts | 221° |
| 2026-04-23 04:46 | 30.77134 | 114.22212 | 107 ft | 12 kts | 221° |
| 2026-04-23 04:46 | 30.77061 | 114.22138 | 104 ft | 12 kts | 221° |
| 2026-04-23 04:46 | 30.77037 | 114.22098 | 107 ft | 8 kts | 254° |
| 2026-04-23 04:47 | 30.77055 | 114.22027 | 106 ft | 6 kts | 278° |
| 2026-04-23 04:47 | 30.77038 | 114.21980 | 106 ft | 6 kts | 237° |
| 2026-04-23 04:47 | 30.77029 | 114.21948 | 107 ft | 6 kts | 266° |
| 2026-04-23 04:47 | 30.77052 | 114.21905 | 105 ft | 6 kts | 312° |
| 2026-04-23 04:48 | 30.77082 | 114.21867 | 107 ft | 6 kts | 311° |
| 2026-04-23 04:48 | 30.77110 | 114.21829 | 107 ft | 6 kts | 311° |
| 2026-04-23 04:48 | 30.77138 | 114.21792 | 105 ft | 6 kts | 311° |
| 2026-04-23 04:48 | 30.77166 | 114.21755 | 107 ft | 6 kts | 311° |
| 2026-04-23 04:49 | 30.77193 | 114.21720 | 107 ft | 6 kts | 311° |
| 2026-04-23 04:49 | 30.77217 | 114.21698 | 106 ft | 3 kts | 350° |
| 2026-04-23 04:49 | 30.77240 | 114.21710 | 107 ft | 4 kts | 36° |
| 2026-04-23 04:49 | 30.77255 | 114.21723 | 107 ft | 1 kts | 39° |
| 2026-04-23 04:50 | 30.77260 | 114.21728 | 107 ft | 1 kts | 40° |
| 2026-04-23 04:50 | 30.77261 | 114.21729 | 107 ft | 0 kts | 40° |